sensor_id;sensor_type;location;lat;lon;timestamp;temperature;humidity
28175;SHT30;59417;44.788;10.334;2024-01-27T00:00:19;5.42;79.80
28175;SHT30;59417;44.788;10.334;2024-01-27T00:02:45;5.26;80.14
28175;SHT30;59417;44.788;10.334;2024-01-27T00:05:13;5.27;80.25
28175;SHT30;59417;44.788;10.334;2024-01-27T00:07:39;5.16;80.72
28175;SHT30;59417;44.788;10.334;2024-01-27T00:10:06;5.27;81.12
28175;SHT30;59417;44.788;10.334;2024-01-27T00:12:31;5.30;81.28
28175;SHT30;59417;44.788;10.334;2024-01-27T00:14:57;5.20;81.28
28175;SHT30;59417;44.788;10.334;2024-01-27T00:17:23;5.13;81.59
28175;SHT30;59417;44.788;10.334;2024-01-27T00:19:54;5.21;81.50
28175;SHT30;59417;44.788;10.334;2024-01-27T00:22:25;5.34;81.21
28175;SHT30;59417;44.788;10.334;2024-01-27T00:24:51;5.45;80.38
28175;SHT30;59417;44.788;10.334;2024-01-27T00:27:16;5.21;80.36
28175;SHT30;59417;44.788;10.334;2024-01-27T00:29:45;4.71;81.84
28175;SHT30;59417;44.788;10.334;2024-01-27T00:32:11;4.73;82.36
28175;SHT30;59417;44.788;10.334;2024-01-27T00:34:39;4.62;82.52
28175;SHT30;59417;44.788;10.334;2024-01-27T00:37:05;4.45;83.81
28175;SHT30;59417;44.788;10.334;2024-01-27T00:39:35;4.42;83.91
28175;SHT30;59417;44.788;10.334;2024-01-27T00:42:01;4.28;84.62
28175;SHT30;59417;44.788;10.334;2024-01-27T00:44:27;4.36;85.07
28175;SHT30;59417;44.788;10.334;2024-01-27T00:46:52;4.53;83.94
28175;SHT30;59417;44.788;10.334;2024-01-27T00:49:18;4.68;82.36
28175;SHT30;59417;44.788;10.334;2024-01-27T00:51:44;4.42;82.47
28175;SHT30;59417;44.788;10.334;2024-01-27T00:54:13;4.22;83.34
28175;SHT30;59417;44.788;10.334;2024-01-27T00:56:38;4.18;83.82
28175;SHT30;59417;44.788;10.334;2024-01-27T00:59:04;4.18;83.61
28175;SHT30;59417;44.788;10.334;2024-01-27T01:01:30;4.20;83.70
28175;SHT30;59417;44.788;10.334;2024-01-27T01:03:56;4.12;83.70
28175;SHT30;59417;44.788;10.334;2024-01-27T01:06:23;4.02;84.15
28175;SHT30;59417;44.788;10.334;2024-01-27T01:08:49;4.08;83.82
28175;SHT30;59417;44.788;10.334;2024-01-27T01:11:15;4.00;83.05
28175;SHT30;59417;44.788;10.334;2024-01-27T01:13:41;3.76;83.35
28175;SHT30;59417;44.788;10.334;2024-01-27T01:16:07;3.69;83.38
28175;SHT30;59417;44.788;10.334;2024-01-27T01:18:33;3.53;83.33
28175;SHT30;59417;44.788;10.334;2024-01-27T01:21:01;3.59;83.61
28175;SHT30;59417;44.788;10.334;2024-01-27T01:23:27;3.70;83.34
28175;SHT30;59417;44.788;10.334;2024-01-27T01:25:52;3.67;83.66
28175;SHT30;59417;44.788;10.334;2024-01-27T01:28:20;3.76;83.70
28175;SHT30;59417;44.788;10.334;2024-01-27T01:30:46;3.80;83.67
28175;SHT30;59417;44.788;10.334;2024-01-27T01:33:12;3.69;84.30
28175;SHT30;59417;44.788;10.334;2024-01-27T01:35:40;3.71;84.78
28175;SHT30;59417;44.788;10.334;2024-01-27T01:38:06;3.89;83.72
28175;SHT30;59417;44.788;10.334;2024-01-27T01:40:32;4.21;81.66
28175;SHT30;59417;44.788;10.334;2024-01-27T01:42:58;4.07;81.80
28175;SHT30;59417;44.788;10.334;2024-01-27T01:45:27;3.91;82.68
28175;SHT30;59417;44.788;10.334;2024-01-27T01:47:53;3.90;82.89
28175;SHT30;59417;44.788;10.334;2024-01-27T01:50:18;3.98;82.64
28175;SHT30;59417;44.788;10.334;2024-01-27T01:52:44;4.00;82.59
28175;SHT30;59417;44.788;10.334;2024-01-27T01:55:10;4.02;82.72
28175;SHT30;59417;44.788;10.334;2024-01-27T01:57:38;4.02;82.28
28175;SHT30;59417;44.788;10.334;2024-01-27T02:00:05;4.39;81.19
28175;SHT30;59417;44.788;10.334;2024-01-27T02:02:37;4.38;81.85
28175;SHT30;59417;44.788;10.334;2024-01-27T02:05:03;4.36;82.27
28175;SHT30;59417;44.788;10.334;2024-01-27T02:07:28;4.61;81.66
28175;SHT30;59417;44.788;10.334;2024-01-27T02:09:56;4.42;82.02
28175;SHT30;59417;44.788;10.334;2024-01-27T02:12:27;4.58;81.89
28175;SHT30;59417;44.788;10.334;2024-01-27T02:14:53;4.63;81.68
28175;SHT30;59417;44.788;10.334;2024-01-27T02:17:19;4.59;82.14
28175;SHT30;59417;44.788;10.334;2024-01-27T02:19:45;4.53;82.50
28175;SHT30;59417;44.788;10.334;2024-01-27T02:22:11;4.58;82.53
28175;SHT30;59417;44.788;10.334;2024-01-27T02:24:37;4.53;82.91
28175;SHT30;59417;44.788;10.334;2024-01-27T02:27:03;4.58;82.88
28175;SHT30;59417;44.788;10.334;2024-01-27T02:29:29;4.55;83.20
28175;SHT30;59417;44.788;10.334;2024-01-27T02:31:55;4.56;83.23
28175;SHT30;59417;44.788;10.334;2024-01-27T02:34:20;4.69;82.85
28175;SHT30;59417;44.788;10.334;2024-01-27T02:36:46;4.71;83.01
28175;SHT30;59417;44.788;10.334;2024-01-27T02:39:12;4.89;82.37
28175;SHT30;59417;44.788;10.334;2024-01-27T02:41:39;4.79;82.65
28175;SHT30;59417;44.788;10.334;2024-01-27T02:44:05;4.72;83.67
28175;SHT30;59417;44.788;10.334;2024-01-27T02:46:34;4.83;83.61
28175;SHT30;59417;44.788;10.334;2024-01-27T02:48:59;4.84;83.42
28175;SHT30;59417;44.788;10.334;2024-01-27T02:51:27;4.92;83.35
28175;SHT30;59417;44.788;10.334;2024-01-27T02:53:53;4.79;83.96
28175;SHT30;59417;44.788;10.334;2024-01-27T02:56:18;4.75;84.21
28175;SHT30;59417;44.788;10.334;2024-01-27T02:58:48;4.71;83.76
28175;SHT30;59417;44.788;10.334;2024-01-27T03:01:13;4.71;83.46
28175;SHT30;59417;44.788;10.334;2024-01-27T03:03:39;4.71;83.31
28175;SHT30;59417;44.788;10.334;2024-01-27T03:06:07;4.63;82.45
28175;SHT30;59417;44.788;10.334;2024-01-27T03:08:33;4.63;82.51
28175;SHT30;59417;44.788;10.334;2024-01-27T03:10:58;4.61;82.29
28175;SHT30;59417;44.788;10.334;2024-01-27T03:13:24;4.61;82.17
28175;SHT30;59417;44.788;10.334;2024-01-27T03:15:50;4.59;81.84
28175;SHT30;59417;44.788;10.334;2024-01-27T03:18:20;4.56;81.87
28175;SHT30;59417;44.788;10.334;2024-01-27T03:20:47;4.53;82.06
28175;SHT30;59417;44.788;10.334;2024-01-27T03:23:13;4.56;81.87
28175;SHT30;59417;44.788;10.334;2024-01-27T03:25:38;4.61;81.12
28175;SHT30;59417;44.788;10.334;2024-01-27T03:28:04;4.55;80.89
28175;SHT30;59417;44.788;10.334;2024-01-27T03:30:30;4.65;79.93
28175;SHT30;59417;44.788;10.334;2024-01-27T03:32:56;4.41;81.06
28175;SHT30;59417;44.788;10.334;2024-01-27T03:35:22;4.75;80.75
28175;SHT30;59417;44.788;10.334;2024-01-27T03:37:47;4.38;82.42
28175;SHT30;59417;44.788;10.334;2024-01-27T03:40:14;4.35;82.89
28175;SHT30;59417;44.788;10.334;2024-01-27T03:42:40;4.38;82.43
28175;SHT30;59417;44.788;10.334;2024-01-27T03:45:06;4.39;82.09
28175;SHT30;59417;44.788;10.334;2024-01-27T03:47:32;4.35;81.80
28175;SHT30;59417;44.788;10.334;2024-01-27T03:49:57;4.35;81.44
28175;SHT30;59417;44.788;10.334;2024-01-27T03:52:23;4.38;81.83
28175;SHT30;59417;44.788;10.334;2024-01-27T03:54:49;4.26;81.84
28175;SHT30;59417;44.788;10.334;2024-01-27T03:57:14;4.48;82.47
28175;SHT30;59417;44.788;10.334;2024-01-27T03:59:40;4.72;82.47
28175;SHT30;59417;44.788;10.334;2024-01-27T04:02:07;4.65;82.93
28175;SHT30;59417;44.788;10.334;2024-01-27T04:04:32;4.59;83.30
28175;SHT30;59417;44.788;10.334;2024-01-27T04:06:59;4.59;82.36
28175;SHT30;59417;44.788;10.334;2024-01-27T04:09:24;4.62;82.08
28175;SHT30;59417;44.788;10.334;2024-01-27T04:11:50;4.65;81.97
28175;SHT30;59417;44.788;10.334;2024-01-27T04:14:16;4.73;81.63
28175;SHT30;59417;44.788;10.334;2024-01-27T04:16:42;4.73;81.35
28175;SHT30;59417;44.788;10.334;2024-01-27T04:19:08;4.76;81.54
28175;SHT30;59417;44.788;10.334;2024-01-27T04:21:33;4.76;81.62
28175;SHT30;59417;44.788;10.334;2024-01-27T04:23:59;4.86;81.53
28175;SHT30;59417;44.788;10.334;2024-01-27T04:26:24;4.96;81.14
28175;SHT30;59417;44.788;10.334;2024-01-27T04:28:50;4.93;81.21
28175;SHT30;59417;44.788;10.334;2024-01-27T04:31:18;4.86;80.67
28175;SHT30;59417;44.788;10.334;2024-01-27T04:33:44;4.76;80.28
28175;SHT30;59417;44.788;10.334;2024-01-27T04:36:10;4.65;80.50
28175;SHT30;59417;44.788;10.334;2024-01-27T04:38:36;4.52;80.30
28175;SHT30;59417;44.788;10.334;2024-01-27T04:41:01;4.46;80.37
28175;SHT30;59417;44.788;10.334;2024-01-27T04:43:27;4.36;80.32
28175;SHT30;59417;44.788;10.334;2024-01-27T04:45:54;4.32;80.69
28175;SHT30;59417;44.788;10.334;2024-01-27T04:48:20;4.36;80.68
28175;SHT30;59417;44.788;10.334;2024-01-27T04:50:46;4.33;80.37
28175;SHT30;59417;44.788;10.334;2024-01-27T04:53:12;4.15;81.39
28175;SHT30;59417;44.788;10.334;2024-01-27T04:55:38;4.20;81.69
28175;SHT30;59417;44.788;10.334;2024-01-27T04:58:07;4.29;81.32
28175;SHT30;59417;44.788;10.334;2024-01-27T05:00:32;4.24;81.36
28175;SHT30;59417;44.788;10.334;2024-01-27T05:02:58;4.24;80.84
28175;SHT30;59417;44.788;10.334;2024-01-27T05:05:29;4.15;80.07
28175;SHT30;59417;44.788;10.334;2024-01-27T05:07:54;4.14;80.21
28175;SHT30;59417;44.788;10.334;2024-01-27T05:10:20;4.32;79.32
28175;SHT30;59417;44.788;10.334;2024-01-27T05:12:47;4.12;80.18
28175;SHT30;59417;44.788;10.334;2024-01-27T05:15:13;3.91;80.75
28175;SHT30;59417;44.788;10.334;2024-01-27T05:17:39;3.81;81.08
28175;SHT30;59417;44.788;10.334;2024-01-27T05:20:05;3.84;81.30
28175;SHT30;59417;44.788;10.334;2024-01-27T05:22:31;3.81;81.94
28175;SHT30;59417;44.788;10.334;2024-01-27T05:24:57;3.89;81.92
28175;SHT30;59417;44.788;10.334;2024-01-27T05:27:22;4.08;81.43
28175;SHT30;59417;44.788;10.334;2024-01-27T05:29:48;3.97;80.47
28175;SHT30;59417;44.788;10.334;2024-01-27T05:32:15;3.94;79.91
28175;SHT30;59417;44.788;10.334;2024-01-27T05:34:40;4.17;79.31
28175;SHT30;59417;44.788;10.334;2024-01-27T05:37:06;3.95;78.97
28175;SHT30;59417;44.788;10.334;2024-01-27T05:39:31;3.67;79.95
28175;SHT30;59417;44.788;10.334;2024-01-27T05:41:59;3.64;80.09
28175;SHT30;59417;44.788;10.334;2024-01-27T05:44:24;3.64;80.29
28175;SHT30;59417;44.788;10.334;2024-01-27T05:46:50;3.52;81.09
28175;SHT30;59417;44.788;10.334;2024-01-27T05:49:18;3.56;81.28
28175;SHT30;59417;44.788;10.334;2024-01-27T05:51:44;3.50;82.02
28175;SHT30;59417;44.788;10.334;2024-01-27T05:54:10;3.71;82.06
28175;SHT30;59417;44.788;10.334;2024-01-27T05:56:38;3.73;81.46
28175;SHT30;59417;44.788;10.334;2024-01-27T05:59:04;3.77;82.05
28175;SHT30;59417;44.788;10.334;2024-01-27T06:01:30;3.81;82.21
28175;SHT30;59417;44.788;10.334;2024-01-27T06:03:55;3.91;81.38
28175;SHT30;59417;44.788;10.334;2024-01-27T06:06:21;3.95;81.13
28175;SHT30;59417;44.788;10.334;2024-01-27T06:08:47;3.89;81.10
28175;SHT30;59417;44.788;10.334;2024-01-27T06:11:13;3.91;81.21
28175;SHT30;59417;44.788;10.334;2024-01-27T06:13:40;3.97;80.85
28175;SHT30;59417;44.788;10.334;2024-01-27T06:16:07;3.91;80.43
28175;SHT30;59417;44.788;10.334;2024-01-27T06:18:34;3.93;80.38
28175;SHT30;59417;44.788;10.334;2024-01-27T06:21:02;3.97;80.41
28175;SHT30;59417;44.788;10.334;2024-01-27T06:23:28;3.94;80.07
28175;SHT30;59417;44.788;10.334;2024-01-27T06:25:54;3.87;79.77
28175;SHT30;59417;44.788;10.334;2024-01-27T06:28:22;3.81;79.22
28175;SHT30;59417;44.788;10.334;2024-01-27T06:30:48;3.70;80.03
28175;SHT30;59417;44.788;10.334;2024-01-27T06:33:14;3.70;79.76
28175;SHT30;59417;44.788;10.334;2024-01-27T06:35:39;3.60;79.87
28175;SHT30;59417;44.788;10.334;2024-01-27T06:38:07;3.69;79.22
28175;SHT30;59417;44.788;10.334;2024-01-27T06:40:33;3.39;80.41
28175;SHT30;59417;44.788;10.334;2024-01-27T06:42:59;3.52;80.29
28175;SHT30;59417;44.788;10.334;2024-01-27T06:45:24;3.63;79.78
28175;SHT30;59417;44.788;10.334;2024-01-27T06:47:50;3.66;79.14
28175;SHT30;59417;44.788;10.334;2024-01-27T06:50:16;3.40;78.95
28175;SHT30;59417;44.788;10.334;2024-01-27T06:52:41;3.08;80.57
28175;SHT30;59417;44.788;10.334;2024-01-27T06:55:07;3.02;81.68
28175;SHT30;59417;44.788;10.334;2024-01-27T06:57:36;2.94;81.61
28175;SHT30;59417;44.788;10.334;2024-01-27T07:00:01;3.49;79.47
28175;SHT30;59417;44.788;10.334;2024-01-27T07:02:28;3.33;79.38
28175;SHT30;59417;44.788;10.334;2024-01-27T07:04:54;3.26;80.74
28175;SHT30;59417;44.788;10.334;2024-01-27T07:07:26;3.26;80.92
28175;SHT30;59417;44.788;10.334;2024-01-27T07:09:56;3.08;81.55
28175;SHT30;59417;44.788;10.334;2024-01-27T07:12:21;2.87;83.03
28175;SHT30;59417;44.788;10.334;2024-01-27T07:14:50;2.63;84.66
28175;SHT30;59417;44.788;10.334;2024-01-27T07:17:16;2.63;84.95
28175;SHT30;59417;44.788;10.334;2024-01-27T07:19:42;2.68;84.48
28175;SHT30;59417;44.788;10.334;2024-01-27T07:22:09;2.64;84.59
28175;SHT30;59417;44.788;10.334;2024-01-27T07:24:35;2.46;85.19
28175;SHT30;59417;44.788;10.334;2024-01-27T07:27:01;2.40;85.20
28175;SHT30;59417;44.788;10.334;2024-01-27T07:29:27;2.36;86.03
28175;SHT30;59417;44.788;10.334;2024-01-27T07:31:52;2.37;86.08
28175;SHT30;59417;44.788;10.334;2024-01-27T07:34:18;2.46;85.94
28175;SHT30;59417;44.788;10.334;2024-01-27T07:36:45;2.40;86.03
28175;SHT30;59417;44.788;10.334;2024-01-27T07:39:14;2.40;85.53
28175;SHT30;59417;44.788;10.334;2024-01-27T07:41:43;2.37;86.25
28175;SHT30;59417;44.788;10.334;2024-01-27T07:44:15;2.39;85.15
28175;SHT30;59417;44.788;10.334;2024-01-27T07:46:47;2.53;84.69
28175;SHT30;59417;44.788;10.334;2024-01-27T07:49:13;2.43;85.35
28175;SHT30;59417;44.788;10.334;2024-01-27T07:51:41;2.33;85.21
28175;SHT30;59417;44.788;10.334;2024-01-27T07:54:07;1.98;86.63
28175;SHT30;59417;44.788;10.334;2024-01-27T07:56:34;1.99;86.75
28175;SHT30;59417;44.788;10.334;2024-01-27T07:59:00;1.75;86.24
28175;SHT30;59417;44.788;10.334;2024-01-27T08:01:26;1.75;86.68
28175;SHT30;59417;44.788;10.334;2024-01-27T08:03:52;1.68;86.61
28175;SHT30;59417;44.788;10.334;2024-01-27T08:06:22;1.46;87.09
28175;SHT30;59417;44.788;10.334;2024-01-27T08:08:49;1.41;87.56
28175;SHT30;59417;44.788;10.334;2024-01-27T08:11:18;1.54;87.74
28175;SHT30;59417;44.788;10.334;2024-01-27T08:13:44;1.54;87.80
28175;SHT30;59417;44.788;10.334;2024-01-27T08:16:11;1.44;87.55
28175;SHT30;59417;44.788;10.334;2024-01-27T08:18:39;1.26;87.58
28175;SHT30;59417;44.788;10.334;2024-01-27T08:21:08;1.36;87.70
28175;SHT30;59417;44.788;10.334;2024-01-27T08:23:34;1.43;87.78
28175;SHT30;59417;44.788;10.334;2024-01-27T08:26:00;1.64;87.84
28175;SHT30;59417;44.788;10.334;2024-01-27T08:28:26;1.88;87.34
28175;SHT30;59417;44.788;10.334;2024-01-27T08:30:54;1.98;86.21
28175;SHT30;59417;44.788;10.334;2024-01-27T08:33:20;2.09;85.99
28175;SHT30;59417;44.788;10.334;2024-01-27T08:35:47;1.90;85.41
28175;SHT30;59417;44.788;10.334;2024-01-27T08:38:15;1.82;86.26
28175;SHT30;59417;44.788;10.334;2024-01-27T08:40:43;1.86;86.68
28175;SHT30;59417;44.788;10.334;2024-01-27T08:43:09;2.09;86.99
28175;SHT30;59417;44.788;10.334;2024-01-27T08:45:37;2.29;86.33
28175;SHT30;59417;44.788;10.334;2024-01-27T08:48:06;2.49;85.68
28175;SHT30;59417;44.788;10.334;2024-01-27T08:50:32;2.54;85.44
28175;SHT30;59417;44.788;10.334;2024-01-27T08:52:58;2.64;85.67
28175;SHT30;59417;44.788;10.334;2024-01-27T08:55:24;2.63;85.54
28175;SHT30;59417;44.788;10.334;2024-01-27T08:57:53;2.65;85.44
28175;SHT30;59417;44.788;10.334;2024-01-27T09:00:19;2.91;85.67
28175;SHT30;59417;44.788;10.334;2024-01-27T09:02:45;2.92;85.01
28175;SHT30;59417;44.788;10.334;2024-01-27T09:05:16;3.04;85.31
28175;SHT30;59417;44.788;10.334;2024-01-27T09:07:42;3.26;84.61
28175;SHT30;59417;44.788;10.334;2024-01-27T09:10:08;3.30;84.27
28175;SHT30;59417;44.788;10.334;2024-01-27T09:12:38;3.47;83.90
28175;SHT30;59417;44.788;10.334;2024-01-27T09:15:07;3.55;83.70
28175;SHT30;59417;44.788;10.334;2024-01-27T09:17:37;3.63;83.72
28175;SHT30;59417;44.788;10.334;2024-01-27T09:20:06;3.62;83.35
28175;SHT30;59417;44.788;10.334;2024-01-27T09:22:32;3.79;83.87
28175;SHT30;59417;44.788;10.334;2024-01-27T09:24:57;3.98;83.45
28175;SHT30;59417;44.788;10.334;2024-01-27T09:27:23;4.08;83.55
28175;SHT30;59417;44.788;10.334;2024-01-27T09:29:49;4.35;81.89
28175;SHT30;59417;44.788;10.334;2024-01-27T09:32:15;4.15;81.58
28175;SHT30;59417;44.788;10.334;2024-01-27T09:34:41;4.25;82.32
28175;SHT30;59417;44.788;10.334;2024-01-27T09:37:07;4.53;81.86
28175;SHT30;59417;44.788;10.334;2024-01-27T09:39:35;4.58;81.14
28175;SHT30;59417;44.788;10.334;2024-01-27T09:42:04;4.69;80.73
28175;SHT30;59417;44.788;10.334;2024-01-27T09:44:32;4.68;81.83
28175;SHT30;59417;44.788;10.334;2024-01-27T09:47:02;4.89;80.73
28175;SHT30;59417;44.788;10.334;2024-01-27T09:49:31;4.42;82.10
28175;SHT30;59417;44.788;10.334;2024-01-27T09:51:57;4.35;82.78
28175;SHT30;59417;44.788;10.334;2024-01-27T09:54:28;4.36;83.66
28175;SHT30;59417;44.788;10.334;2024-01-27T09:56:55;4.51;83.49
28175;SHT30;59417;44.788;10.334;2024-01-27T09:59:22;4.46;83.75
28175;SHT30;59417;44.788;10.334;2024-01-27T10:01:48;4.66;83.76
28175;SHT30;59417;44.788;10.334;2024-01-27T10:04:22;4.76;83.27
28175;SHT30;59417;44.788;10.334;2024-01-27T10:06:53;4.94;82.83
28175;SHT30;59417;44.788;10.334;2024-01-27T10:09:19;5.04;82.67
28175;SHT30;59417;44.788;10.334;2024-01-27T10:11:46;5.08;83.63
28175;SHT30;59417;44.788;10.334;2024-01-27T10:14:13;5.08;84.56
28175;SHT30;59417;44.788;10.334;2024-01-27T10:16:46;5.28;84.67
28175;SHT30;59417;44.788;10.334;2024-01-27T10:19:19;5.58;83.25
28175;SHT30;59417;44.788;10.334;2024-01-27T10:21:59;5.74;81.19
28175;SHT30;59417;44.788;10.334;2024-01-27T10:24:25;5.75;82.02
28175;SHT30;59417;44.788;10.334;2024-01-27T10:27:04;5.90;81.61
28175;SHT30;59417;44.788;10.334;2024-01-27T10:29:32;5.92;82.38
28175;SHT30;59417;44.788;10.334;2024-01-27T10:32:08;6.10;82.19
28175;SHT30;59417;44.788;10.334;2024-01-27T10:34:36;6.40;81.51
28175;SHT30;59417;44.788;10.334;2024-01-27T10:37:01;6.61;79.98
28175;SHT30;59417;44.788;10.334;2024-01-27T10:39:30;6.53;80.38
28175;SHT30;59417;44.788;10.334;2024-01-27T10:42:02;6.60;80.67
28175;SHT30;59417;44.788;10.334;2024-01-27T10:44:31;6.78;80.45
28175;SHT30;59417;44.788;10.334;2024-01-27T10:47:01;6.92;79.54
28175;SHT30;59417;44.788;10.334;2024-01-27T10:49:32;6.87;79.35
28175;SHT30;59417;44.788;10.334;2024-01-27T10:52:01;6.77;79.54
28175;SHT30;59417;44.788;10.334;2024-01-27T10:54:34;7.01;80.29
28175;SHT30;59417;44.788;10.334;2024-01-27T10:57:01;7.11;79.01
28175;SHT30;59417;44.788;10.334;2024-01-27T10:59:31;7.26;79.37
28175;SHT30;59417;44.788;10.334;2024-01-27T11:01:57;7.61;80.09
28175;SHT30;59417;44.788;10.334;2024-01-27T11:04:24;7.90;78.64
28175;SHT30;59417;44.788;10.334;2024-01-27T11:06:51;8.14;76.97
28175;SHT30;59417;44.788;10.334;2024-01-27T11:09:18;8.35;75.30
28175;SHT30;59417;44.788;10.334;2024-01-27T11:11:50;8.32;75.45
28175;SHT30;59417;44.788;10.334;2024-01-27T11:14:16;8.00;75.34
28175;SHT30;59417;44.788;10.334;2024-01-27T11:16:42;7.98;77.57
28175;SHT30;59417;44.788;10.334;2024-01-27T11:19:11;8.07;76.67
28175;SHT30;59417;44.788;10.334;2024-01-27T11:21:40;7.76;76.85
28175;SHT30;59417;44.788;10.334;2024-01-27T11:24:16;7.56;77.85
28175;SHT30;59417;44.788;10.334;2024-01-27T11:26:45;7.74;78.29
28175;SHT30;59417;44.788;10.334;2024-01-27T11:29:12;7.81;77.79
28175;SHT30;59417;44.788;10.334;2024-01-27T11:31:49;7.90;78.20
28175;SHT30;59417;44.788;10.334;2024-01-27T11:34:18;8.10;77.48
28175;SHT30;59417;44.788;10.334;2024-01-27T11:36:45;8.33;76.92
28175;SHT30;59417;44.788;10.334;2024-01-27T11:39:28;8.12;77.33
28175;SHT30;59417;44.788;10.334;2024-01-27T11:42:08;8.35;77.15
28175;SHT30;59417;44.788;10.334;2024-01-27T11:44:55;8.46;76.70
28175;SHT30;59417;44.788;10.334;2024-01-27T11:47:21;8.59;76.79
28175;SHT30;59417;44.788;10.334;2024-01-27T11:49:54;8.77;76.82
28175;SHT30;59417;44.788;10.334;2024-01-27T11:52:20;8.83;75.72
28175;SHT30;59417;44.788;10.334;2024-01-27T11:54:58;8.79;75.57
28175;SHT30;59417;44.788;10.334;2024-01-27T11:57:25;8.89;75.48
28175;SHT30;59417;44.788;10.334;2024-01-27T11:59:51;9.18;75.36
28175;SHT30;59417;44.788;10.334;2024-01-27T12:02:21;9.17;75.22
28175;SHT30;59417;44.788;10.334;2024-01-27T12:04:52;9.21;74.68
28175;SHT30;59417;44.788;10.334;2024-01-27T12:07:19;9.23;74.68
28175;SHT30;59417;44.788;10.334;2024-01-27T12:09:45;9.17;74.85
28175;SHT30;59417;44.788;10.334;2024-01-27T12:12:13;9.18;74.93
28175;SHT30;59417;44.788;10.334;2024-01-27T12:14:41;9.35;75.11
28175;SHT30;59417;44.788;10.334;2024-01-27T12:17:13;9.48;74.47
28175;SHT30;59417;44.788;10.334;2024-01-27T12:19:39;9.48;74.07
28175;SHT30;59417;44.788;10.334;2024-01-27T12:24:59;9.55;74.12
28175;SHT30;59417;44.788;10.334;2024-01-27T12:27:36;9.55;73.79
28175;SHT30;59417;44.788;10.334;2024-01-27T12:30:04;9.68;73.99
28175;SHT30;59417;44.788;10.334;2024-01-27T12:32:33;9.70;73.78
28175;SHT30;59417;44.788;10.334;2024-01-27T12:35:07;9.79;73.21
28175;SHT30;59417;44.788;10.334;2024-01-27T12:37:36;9.86;73.73
28175;SHT30;59417;44.788;10.334;2024-01-27T12:40:16;10.12;74.04
28175;SHT30;59417;44.788;10.334;2024-01-27T12:42:42;10.41;71.87
28175;SHT30;59417;44.788;10.334;2024-01-27T12:45:08;10.48;71.99
28175;SHT30;59417;44.788;10.334;2024-01-27T12:47:34;10.61;72.77
28175;SHT30;59417;44.788;10.334;2024-01-27T12:50:04;10.75;72.13
28175;SHT30;59417;44.788;10.334;2024-01-27T12:52:33;10.92;71.38
28175;SHT30;59417;44.788;10.334;2024-01-27T12:55:02;11.09;69.53
28175;SHT30;59417;44.788;10.334;2024-01-27T12:57:29;11.22;70.62
28175;SHT30;59417;44.788;10.334;2024-01-27T12:59:56;11.23;70.51
28175;SHT30;59417;44.788;10.334;2024-01-27T13:02:22;11.49;70.65
28175;SHT30;59417;44.788;10.334;2024-01-27T13:04:48;11.63;70.24
28175;SHT30;59417;44.788;10.334;2024-01-27T13:07:14;11.74;69.56
28175;SHT30;59417;44.788;10.334;2024-01-27T13:09:41;11.80;69.77
28175;SHT30;59417;44.788;10.334;2024-01-27T13:12:07;11.76;68.00
28175;SHT30;59417;44.788;10.334;2024-01-27T13:14:36;11.73;69.47
28175;SHT30;59417;44.788;10.334;2024-01-27T13:17:05;11.90;69.57
28175;SHT30;59417;44.788;10.334;2024-01-27T13:19:35;11.91;69.81
28175;SHT30;59417;44.788;10.334;2024-01-27T13:22:01;12.02;69.59
28175;SHT30;59417;44.788;10.334;2024-01-27T13:24:28;12.17;69.02
28175;SHT30;59417;44.788;10.334;2024-01-27T13:26:54;12.13;69.37
28175;SHT30;59417;44.788;10.334;2024-01-27T13:29:25;12.05;69.78
28175;SHT30;59417;44.788;10.334;2024-01-27T13:31:52;12.02;69.78
28175;SHT30;59417;44.788;10.334;2024-01-27T13:34:18;11.90;69.48
28175;SHT30;59417;44.788;10.334;2024-01-27T13:36:44;11.71;70.24
28175;SHT30;59417;44.788;10.334;2024-01-27T13:39:10;11.55;71.46
28175;SHT30;59417;44.788;10.334;2024-01-27T13:41:36;11.60;71.72
28175;SHT30;59417;44.788;10.334;2024-01-27T13:44:04;11.64;71.93
28175;SHT30;59417;44.788;10.334;2024-01-27T13:46:31;11.60;71.86
28175;SHT30;59417;44.788;10.334;2024-01-27T13:48:57;11.29;72.43
28175;SHT30;59417;44.788;10.334;2024-01-27T13:51:23;11.30;72.44
28175;SHT30;59417;44.788;10.334;2024-01-27T13:53:49;11.23;72.85
28175;SHT30;59417;44.788;10.334;2024-01-27T13:56:15;11.26;72.30
28175;SHT30;59417;44.788;10.334;2024-01-27T13:58:43;11.23;72.68
28175;SHT30;59417;44.788;10.334;2024-01-27T14:01:09;11.20;72.97
28175;SHT30;59417;44.788;10.334;2024-01-27T14:03:36;11.18;72.89
28175;SHT30;59417;44.788;10.334;2024-01-27T14:06:03;11.25;72.66
28175;SHT30;59417;44.788;10.334;2024-01-27T14:08:31;11.09;72.70
28175;SHT30;59417;44.788;10.334;2024-01-27T14:10:57;11.08;73.12
28175;SHT30;59417;44.788;10.334;2024-01-27T14:13:26;11.01;73.00
28175;SHT30;59417;44.788;10.334;2024-01-27T14:15:52;11.02;73.30
28175;SHT30;59417;44.788;10.334;2024-01-27T14:18:20;11.01;72.94
28175;SHT30;59417;44.788;10.334;2024-01-27T14:20:50;10.94;73.07
28175;SHT30;59417;44.788;10.334;2024-01-27T14:23:17;10.96;73.52
28175;SHT30;59417;44.788;10.334;2024-01-27T14:25:49;11.02;73.42
28175;SHT30;59417;44.788;10.334;2024-01-27T14:28:15;11.09;73.06
28175;SHT30;59417;44.788;10.334;2024-01-27T14:30:44;11.12;72.73
28175;SHT30;59417;44.788;10.334;2024-01-27T14:33:13;10.94;73.22
28175;SHT30;59417;44.788;10.334;2024-01-27T14:35:41;10.84;73.70
28175;SHT30;59417;44.788;10.334;2024-01-27T14:38:07;10.75;73.75
28175;SHT30;59417;44.788;10.334;2024-01-27T14:40:34;10.82;73.50
28175;SHT30;59417;44.788;10.334;2024-01-27T14:43:05;10.81;73.79
28175;SHT30;59417;44.788;10.334;2024-01-27T14:45:35;10.82;73.67
28175;SHT30;59417;44.788;10.334;2024-01-27T14:48:04;10.78;73.97
28175;SHT30;59417;44.788;10.334;2024-01-27T14:50:31;10.70;73.97
28175;SHT30;59417;44.788;10.334;2024-01-27T14:52:57;10.56;74.37
28175;SHT30;59417;44.788;10.334;2024-01-27T14:55:27;10.45;75.04
28175;SHT30;59417;44.788;10.334;2024-01-27T14:57:56;10.30;75.32
28175;SHT30;59417;44.788;10.334;2024-01-27T15:00:22;10.19;75.90
28175;SHT30;59417;44.788;10.334;2024-01-27T15:02:48;10.14;76.09
28175;SHT30;59417;44.788;10.334;2024-01-27T15:05:14;10.26;75.88
28175;SHT30;59417;44.788;10.334;2024-01-27T15:07:41;10.14;76.08
28175;SHT30;59417;44.788;10.334;2024-01-27T15:10:07;9.96;76.64
28175;SHT30;59417;44.788;10.334;2024-01-27T15:12:33;9.93;76.89
28175;SHT30;59417;44.788;10.334;2024-01-27T15:14:59;9.89;76.85
28175;SHT30;59417;44.788;10.334;2024-01-27T15:17:28;9.85;76.99
28175;SHT30;59417;44.788;10.334;2024-01-27T15:19:57;9.96;76.37
28175;SHT30;59417;44.788;10.334;2024-01-27T15:22:23;9.92;75.95
28175;SHT30;59417;44.788;10.334;2024-01-27T15:24:51;9.93;76.06
28175;SHT30;59417;44.788;10.334;2024-01-27T15:27:18;9.92;75.84
28175;SHT30;59417;44.788;10.334;2024-01-27T15:29:44;9.92;75.62